Time;durP1;ratioP1;P1;durP2;ratioP2;P2;SDS_P1;SDS_P2;PMS_P1;PMS_P2;Temp;Humidity;BMP_temperature;BMP_pressure;BME280_temperature;BME280_humidity;BME280_pressure;Samples;Min_cycle;Max_cycle;Signal;HPM_P1;HPM_P2
2022/09/23 00:01:36;;;;;;;29.98;27.80;;;;;;;15.91;54.39;101676.59;5040291;28;20029;-79
2022/09/23 00:04:01;;;;;;;30.15;27.98;;;;;;;15.89;54.60;101679.56;5024026;28;20044;-77
2022/09/23 00:06:27;;;;;;;32.53;30.50;;;;;;;15.87;54.57;101670.00;5031401;28;20037;-76
2022/09/23 00:08:53;;;;;;;31.02;29.15;;;;;;;15.86;54.44;101671.09;5033884;28;20037;-77
2022/09/23 00:11:28;;;;;;;32.85;30.70;;;;;;;15.85;54.40;101672.16;5056125;28;20545;-77
2022/09/23 00:13:56;;;;;;;31.02;29.23;;;;;;;15.83;54.41;101664.25;5013667;28;20034;-77
2022/09/23 00:16:28;;;;;;;32.20;30.10;;;;;;;15.82;54.49;101667.22;5013088;28;20095;-77
2022/09/23 00:18:54;;;;;;;29.60;27.70;;;;;;;15.80;54.62;101662.06;5017960;28;20041;-77
2022/09/23 00:21:20;;;;;;;33.28;31.17;;;;;;;15.79;54.55;101660.38;5012864;28;20022;-78
2022/09/23 00:23:47;;;;;;;31.83;29.92;;;;;;;15.77;54.49;101655.22;5028083;28;20053;-77
2022/09/23 00:26:15;;;;;;;32.03;29.83;;;;;;;15.77;54.46;101659.81;5047776;28;20109;-78
2022/09/23 00:28:41;;;;;;;31.02;29.23;;;;;;;15.75;54.76;101651.09;5034551;28;20044;-79
2022/09/23 00:31:18;;;;;;;30.73;28.75;;;;;;;15.73;54.62;101648.63;5011474;28;20085;-78
2022/09/23 00:33:44;;;;;;;30.52;28.73;;;;;;;15.72;54.63;101649.72;5023620;28;20033;-78
2022/09/23 00:36:15;;;;;;;32.50;30.27;;;;;;;15.71;54.63;101644.50;5047602;28;20033;-78
2022/09/23 00:38:41;;;;;;;31.27;28.70;;;;;;;15.70;54.44;101648.28;5024727;28;20037;-78
2022/09/23 00:41:06;;;;;;;29.48;27.77;;;;;;;15.67;54.78;101643.31;5035678;28;20033;-82
2022/09/23 00:43:40;;;;;;;30.52;28.63;;;;;;;15.66;54.63;101650.69;5047143;28;20065;-79
2022/09/23 00:46:08;;;;;;;30.65;28.55;;;;;;;15.65;54.65;101653.66;5027877;28;20038;-78
2022/09/23 00:48:36;;;;;;;30.33;28.20;;;;;;;15.63;54.57;101647.66;5021341;28;20474;-77
2022/09/23 00:51:04;;;;;;;30.63;28.83;;;;;;;15.61;54.56;101642.44;5021594;28;20092;-76
2022/09/23 00:53:29;;;;;;;29.35;27.58;;;;;;;15.61;54.37;101647.06;5029388;28;20393;-80
2022/09/23 00:56:03;;;;;;;30.75;28.92;;;;;;;15.57;54.29;101644.88;5038638;28;20075;-77
2022/09/23 00:58:31;;;;;;;29.83;28.02;;;;;;;15.57;54.56;101641.31;5020658;28;20523;-78
2022/09/23 01:01:01;;;;;;;28.25;26.75;;;;;;;15.55;54.66;101640.75;5032813;28;20060;-78
2022/09/23 01:03:28;;;;;;;31.58;29.67;;;;;;;15.53;54.37;101643.72;5012648;28;20034;-77
2022/09/23 01:05:54;;;;;;;30.85;28.95;;;;;;;15.52;54.33;101638.50;5022853;28;20029;-77
2022/09/23 01:08:22;;;;;;;30.67;28.77;;;;;;;15.51;54.19;101645.88;5031575;28;20041;-78
2022/09/23 01:11:05;;;;;;;29.38;27.27;;;;;;;15.50;54.63;101638.78;5016162;28;20034;-78
2022/09/23 01:13:59;;;;;;;30.83;28.73;;;;;;;15.48;54.32;101637.41;5049979;28;20033;-78
2022/09/23 01:16:46;;;;;;;29.83;27.67;;;;;;;15.46;54.41;101631.38;5016977;28;20033;-77
2022/09/23 01:19:37;;;;;;;27.67;26.02;;;;;;;15.44;54.48;101630.81;5044313;28;20030;-77
2022/09/23 01:22:13;;;;;;;28.63;26.85;;;;;;;15.41;54.12;101626.69;5062368;28;20144;-77
2022/09/23 01:24:44;;;;;;;29.35;27.35;;;;;;;15.41;54.26;101625.88;5063957;28;20394;-77
2022/09/23 01:27:38;;;;;;;28.83;27.13;;;;;;;15.38;54.39;101624.47;5024311;28;20044;-79
2022/09/23 01:30:32;;;;;;;28.88;27.20;;;;;;;15.36;54.36;101627.44;5012896;28;20034;-78
2022/09/23 01:33:03;;;;;;;29.00;27.17;;;;;;;15.34;54.54;101617.88;5055901;28;20550;-79
2022/09/23 01:35:41;;;;;;;29.58;27.80;;;;;;;15.32;54.27;101620.88;5021681;28;20041;-77
2022/09/23 01:38:19;;;;;;;28.65;26.95;;;;;;;15.32;54.54;101622.75;5023738;28;20038;-77
2022/09/23 01:40:50;;;;;;;30.15;28.35;;;;;;;15.30;54.29;101616.75;5025180;28;20028;-77
2022/09/23 01:43:27;;;;;;;28.88;27.17;;;;;;;15.28;54.26;101619.72;5028755;28;20064;-78
2022/09/23 01:45:57;;;;;;;28.40;26.70;;;;;;;15.27;54.41;101617.25;5025882;28;20041;-79
2022/09/23 01:48:32;;;;;;;29.80;28.00;;;;;;;15.25;54.50;101617.50;5030289;28;20060;-77
2022/09/23 01:51:07;;;;;;;27.50;25.88;;;;;;;15.24;54.41;101624.00;5039211;28;20049;-77
2022/09/23 01:53:52;;;;;;;28.73;27.02;;;;;;;15.22;54.22;101619.91;5027503;28;20261;-77
2022/09/23 01:56:27;;;;;;;28.67;26.88;;;;;;;15.21;54.23;101626.44;5010595;28;20080;-78
2022/09/23 01:59:08;;;;;;;28.20;26.60;;;;;;;15.19;54.51;101626.66;5020132;28;20037;-78
2022/09/23 02:01:41;;;;;;;29.50;27.75;;;;;;;15.18;54.45;101618.78;5027198;28;20029;-78
2022/09/23 02:04:12;;;;;;;29.25;27.65;;;;;;;15.16;54.17;101624.47;5063249;28;20030;-78
2022/09/23 02:06:45;;;;;;;28.60;26.65;;;;;;;15.14;54.48;101632.03;5063043;28;20044;-79
2022/09/23 02:09:14;;;;;;;28.60;26.90;;;;;;;15.14;54.42;101624.72;5038326;28;20038;-77
2022/09/23 02:11:44;;;;;;;28.63;26.80;;;;;;;15.12;54.44;101615.16;5030238;28;20121;-79
2022/09/23 02:14:21;;;;;;;28.70;27.20;;;;;;;15.10;54.35;101607.25;5027249;28;20034;-79
2022/09/23 02:16:50;;;;;;;28.90;26.88;;;;;;;15.11;54.45;101610.78;5012045;28;20034;-78
2022/09/23 02:19:27;;;;;;;29.33;27.23;;;;;;;15.08;54.33;101603.94;5040427;28;20037;-83
2022/09/23 02:22:04;;;;;;;28.65;26.92;;;;;;;15.07;54.74;101598.78;5031144;28;20108;-78
2022/09/23 02:24:33;;;;;;;29.77;27.52;;;;;;;15.06;54.11;101594.38;5057349;28;20058;-78
2022/09/23 02:27:30;;;;;;;26.98;25.38;;;;;;;15.04;54.43;101597.34;5027473;28;20083;-79
2022/09/23 02:30:13;;;;;;;28.35;26.40;;;;;;;15.03;54.04;101593.00;5015544;28;20124;-78
2022/09/23 02:32:59;;;;;;;28.08;26.35;;;;;;;15.00;54.36;101588.06;5030775;28;20408;-78
2022/09/23 02:35:41;;;;;;;29.42;27.50;;;;;;;14.99;54.08;101585.59;5063971;28;20033;-78
2022/09/23 02:38:22;;;;;;;27.77;25.85;;;;;;;14.97;54.49;101577.69;5034645;28;20064;-78
2022/09/23 02:41:09;;;;;;;27.02;25.48;;;;;;;14.96;54.19;101575.22;5031878;28;20103;-76
2022/09/23 02:44:11;;;;;;;29.88;28.00;;;;;;;14.94;54.19;101580.91;5036588;28;20030;-78
2022/09/23 02:46:37;;;;;;;28.48;26.63;;;;;;;14.91;54.38;101570.53;5005533;28;20470;-78
2022/09/23 02:49:25;;;;;;;29.00;27.48;;;;;;;14.90;54.29;101572.44;5033525;28;20065;-77
2022/09/23 02:51:53;;;;;;;27.60;25.80;;;;;;;14.88;54.58;101563.69;5030420;28;20033;-77
2022/09/23 02:54:28;;;;;;;28.15;26.52;;;;;;;14.86;54.24;101565.00;5025749;28;20033;-85
2022/09/23 02:56:54;;;;;;;29.98;28.17;;;;;;;14.87;54.40;101567.50;5035486;28;20037;-78
2022/09/23 02:59:23;;;;;;;27.20;25.70;;;;;;;14.85;54.46;101569.63;5020066;28;20083;-88
2022/09/23 03:01:48;;;;;;;;;;;;;;;14.83;54.34;101557.38;5014753;28;20030;-77
2022/09/23 03:04:37;;;;;;;28.23;26.63;;;;;;;14.82;54.35;101561.16;5063402;28;19913;-78
2022/09/23 03:07:34;;;;;;;27.75;25.80;;;;;;;14.79;54.19;101562.50;5027653;28;20037;-79
2022/09/23 03:10:17;;;;;;;27.87;25.97;;;;;;;14.78;54.27;101569.00;5017103;28;20036;-78
2022/09/23 03:13:22;;;;;;;27.77;26.08;;;;;;;14.75;54.28;101564.06;5021886;28;20034;-78
2022/09/23 03:15:59;;;;;;;27.05;25.45;;;;;;;14.74;54.36;101565.16;5030296;28;20037;-77
2022/09/23 03:18:35;;;;;;;29.90;27.95;;;;;;;14.73;54.08;101565.38;5024135;28;20034;-78
2022/09/23 03:21:06;;;;;;;28.70;26.90;;;;;;;14.71;54.44;101571.88;5024965;28;20030;-77
2022/09/23 03:23:39;;;;;;;28.17;26.48;;;;;;;14.71;54.17;101565.63;5013379;28;20481;-78
2022/09/23 03:26:10;;;;;;;27.15;25.60;;;;;;;14.69;54.10;101570.47;5043256;28;20038;-75
2022/09/23 03:28:39;;;;;;;29.67;27.55;;;;;;;14.69;54.37;101562.31;5014551;28;20032;-76
2022/09/23 03:31:05;;;;;;;28.00;26.30;;;;;;;14.67;54.12;101565.31;5032665;28;20496;-77
2022/09/23 03:33:32;;;;;;;30.33;28.42;;;;;;;14.65;54.38;101559.28;5023760;28;20057;-76
2022/09/23 03:39:02;;;;;;;29.98;27.98;;;;;;;14.63;54.23;101561.44;5030773;28;20131;-77
2022/09/23 03:41:49;;;;;;;28.67;26.92;;;;;;;14.61;54.34;101560.84;5022739;28;20382;-75
2022/09/23 03:44:16;;;;;;;26.25;24.65;;;;;;;14.60;54.05;101561.94;5014795;28;20040;-77
2022/09/23 03:46:48;;;;;;;28.75;26.67;;;;;;;14.58;54.38;101550.47;4997428;28;20034;-76
2022/09/23 03:49:16;;;;;;;28.05;26.35;;;;;;;14.58;54.27;101552.38;5029971;28;20481;-77
2022/09/23 03:51:42;;;;;;;29.83;27.25;;;;;;;14.55;54.27;101540.13;5033985;28;20039;-81
2022/09/23 03:54:07;;;;;;;27.05;25.27;;;;;;;14.54;54.17;101533.03;5065352;28;20132;-77
2022/09/23 03:56:33;;;;;;;28.60;26.88;;;;;;;14.53;54.26;101536.81;5052309;28;20033;-77
2022/09/23 03:58:58;;;;;;;28.10;26.30;;;;;;;14.52;54.07;101535.16;5029728;28;20061;-77
2022/09/23 04:01:23;;;;;;;27.42;25.70;;;;;;;14.51;54.09;101538.91;5013214;28;20033;-77
2022/09/23 04:03:50;;;;;;;27.20;25.25;;;;;;;14.50;54.25;101537.28;5013238;28;20026;-78
2022/09/23 04:06:16;;;;;;;28.88;27.17;;;;;;;14.49;53.88;101535.66;5055902;28;20033;-77
2022/09/23 04:08:41;;;;;;;26.95;25.27;;;;;;;14.47;54.11;101529.63;5028427;28;20033;-77
2022/09/23 04:11:06;;;;;;;28.52;26.63;;;;;;;14.46;54.06;101536.13;5030329;28;20034;-77
2022/09/23 04:13:32;;;;;;;28.60;26.88;;;;;;;14.46;54.09;101527.97;5016371;28;20025;-77
2022/09/23 04:15:57;;;;;;;27.98;26.27;;;;;;;14.43;54.46;101526.56;5029526;28;20040;-78
2022/09/23 04:18:23;;;;;;;27.73;25.98;;;;;;;14.42;54.40;101524.13;5022539;28;20061;-77
2022/09/23 04:20:49;;;;;;;27.98;26.17;;;;;;;14.42;54.47;101522.22;5014106;28;20057;-77
2022/09/23 04:23:14;;;;;;;26.45;24.90;;;;;;;14.40;54.42;101524.38;5028199;28;20389;-76
2022/09/23 04:25:44;;;;;;;28.08;25.90;;;;;;;14.39;53.97;101527.31;5017572;28;20044;-77
2022/09/23 04:28:10;;;;;;;27.75;26.00;;;;;;;14.38;54.11;101518.34;5030542;28;20453;-76
2022/09/23 04:30:41;;;;;;;29.40;27.15;;;;;;;14.37;54.08;101527.59;5019462;28;20477;-76
2022/09/23 04:33:06;;;;;;;29.05;27.25;;;;;;;14.35;54.27;101518.84;5022738;28;20050;-78
2022/09/23 04:35:32;;;;;;;28.05;26.10;;;;;;;14.34;54.23;101516.38;5032748;28;20083;-76
2022/09/23 04:37:57;;;;;;;29.02;26.98;;;;;;;14.33;54.16;101520.19;5050548;28;20044;-76
2022/09/23 04:40:23;;;;;;;27.55;25.85;;;;;;;14.32;54.25;101504.94;5048555;28;20044;-76
2022/09/23 04:42:49;;;;;;;26.73;24.70;;;;;;;14.31;54.21;101508.72;5016309;28;20067;-77
2022/09/23 04:45:14;;;;;;;27.30;25.50;;;;;;;14.30;54.26;101513.34;5032439;28;20037;-77
2022/09/23 04:47:40;;;;;;;28.02;26.02;;;;;;;14.28;54.29;101505.44;5033369;28;20095;-77
2022/09/23 04:50:06;;;;;;;28.00;25.77;;;;;;;14.27;54.31;101505.69;5032561;28;20363;-79
2022/09/23 04:52:31;;;;;;;27.95;26.05;;;;;;;14.25;54.39;101497.78;5065367;28;20064;-78
2022/09/23 04:54:57;;;;;;;28.02;26.13;;;;;;;14.25;54.09;101502.41;5051099;28;20034;-80
2022/09/23 04:57:23;;;;;;;28.90;26.65;;;;;;;14.23;54.12;101501.81;5029017;28;20505;-78
2022/09/23 04:59:49;;;;;;;27.75;25.42;;;;;;;14.22;54.11;101511.88;5031981;28;20082;-79
2022/09/23 05:02:15;;;;;;;28.77;26.90;;;;;;;14.21;54.14;101507.50;5030783;28;20079;-78
2022/09/23 05:04:40;;;;;;;27.95;26.30;;;;;;;14.20;54.28;101508.56;5054809;28;20038;-77
2022/09/23 05:07:06;;;;;;;27.73;25.85;;;;;;;14.20;54.33;101507.75;5032577;28;20042;-77
2022/09/23 05:09:31;;;;;;;27.17;25.42;;;;;;;14.18;54.21;101512.59;5021055;28;20286;-77
2022/09/23 05:11:57;;;;;;;28.15;26.45;;;;;;;14.17;54.29;101505.53;5032362;28;20093;-77
2022/09/23 05:14:22;;;;;;;27.33;25.42;;;;;;;14.15;54.24;101516.63;5027578;28;20426;-78
2022/09/23 05:16:47;;;;;;;27.65;25.75;;;;;;;14.15;54.29;101515.81;5014546;28;20402;-78
2022/09/23 05:19:13;;;;;;;26.60;24.90;;;;;;;14.14;54.14;101525.06;5017080;28;20038;-78
2022/09/23 05:21:39;;;;;;;29.42;27.42;;;;;;;14.13;54.41;101517.97;5002670;28;20060;-78
2022/09/23 05:24:04;;;;;;;28.65;26.85;;;;;;;14.12;54.33;101516.31;5038905;28;20029;-77
2022/09/23 05:26:31;;;;;;;28.52;26.52;;;;;;;14.11;54.21;101517.38;5023552;28;20068;-78
2022/09/23 05:28:57;;;;;;;28.30;26.55;;;;;;;14.07;54.25;101514.34;5031803;28;20092;-76
2022/09/23 05:31:25;;;;;;;27.00;25.13;;;;;;;14.09;54.51;101520.38;5031707;28;20037;-81
2022/09/23 05:33:56;;;;;;;27.92;26.10;;;;;;;14.07;54.22;101528.75;5033162;28;20451;-79
2022/09/23 05:36:22;;;;;;;28.20;26.10;;;;;;;14.06;54.47;101526.25;5036557;28;20022;-77
2022/09/23 05:38:50;;;;;;;29.40;27.30;;;;;;;14.04;54.22;101537.41;5022338;28;20042;-76
2022/09/23 05:41:17;;;;;;;27.98;26.08;;;;;;;14.04;54.32;101533.88;5031042;28;20029;-75
2022/09/23 05:43:43;;;;;;;29.98;27.63;;;;;;;14.03;54.23;101534.91;5030231;28;20084;-76
2022/09/23 05:46:18;;;;;;;28.67;26.65;;;;;;;14.02;54.38;101539.53;5039642;28;20029;-78
2022/09/23 05:48:46;;;;;;;27.85;26.05;;;;;;;14.01;54.25;101537.03;5015758;28;20037;-76
2022/09/23 05:51:13;;;;;;;;;;;;;;;14.00;54.42;101541.66;5021172;28;20375;-74
2022/09/23 05:53:40;;;;;;;27.60;25.63;;;;;;;13.98;54.31;101538.38;5025624;28;20268;-76
2022/09/23 05:56:06;;;;;;;27.50;25.70;;;;;;;13.96;54.37;101535.09;5034171;28;20030;-75
2022/09/23 05:58:32;;;;;;;29.33;27.25;;;;;;;13.96;54.48;101539.69;5021058;28;20045;-77
2022/09/23 06:00:57;;;;;;;27.65;25.75;;;;;;;13.95;54.50;101538.03;5021153;28;20504;-76
2022/09/23 06:03:24;;;;;;;27.92;25.45;;;;;;;13.94;54.63;101539.94;5040922;28;20094;-76
2022/09/23 06:05:53;;;;;;;29.05;27.00;;;;;;;13.93;54.49;101538.28;5025243;28;20038;-77
2022/09/23 06:08:19;;;;;;;28.25;26.05;;;;;;;13.94;54.55;101530.97;5016714;28;20084;-77
2022/09/23 06:10:48;;;;;;;29.73;27.17;;;;;;;13.92;54.82;101527.69;5063112;28;20037;-77
2022/09/23 06:13:14;;;;;;;27.83;25.95;;;;;;;13.92;54.44;101530.41;5029606;28;20045;-77
2022/09/23 06:15:40;;;;;;;27.17;25.10;;;;;;;13.91;54.65;101532.28;5031795;28;20036;-78
2022/09/23 06:18:06;;;;;;;27.85;25.67;;;;;;;13.91;54.52;101526.84;5044582;28;20024;-79
2022/09/23 06:20:33;;;;;;;28.02;26.17;;;;;;;13.91;54.76;101529.56;5044337;28;20045;-78
2022/09/23 06:23:08;;;;;;;30.23;27.80;;;;;;;13.90;54.70;101525.19;5033366;28;20045;-78
2022/09/23 06:25:35;;;;;;;28.50;26.38;;;;;;;13.89;54.75;101534.41;5034847;28;20064;-79
2022/09/23 06:28:01;;;;;;;29.38;27.17;;;;;;;13.89;54.63;101528.19;5034609;28;20484;-75
2022/09/23 06:30:27;;;;;;;31.25;28.02;;;;;;;13.88;54.84;101526.50;5030760;28;20022;-77
2022/09/23 06:32:55;;;;;;;29.38;27.27;;;;;;;13.88;54.44;101526.50;5033292;28;20058;-75
2022/09/23 06:35:23;;;;;;;27.10;25.30;;;;;;;13.87;54.57;101527.59;5029551;28;20124;-77
2022/09/23 06:37:49;;;;;;;28.02;26.05;;;;;;;13.87;54.69;101522.16;5036249;28;20378;-76
2022/09/23 06:40:15;;;;;;;28.17;26.10;;;;;;;13.85;54.85;101523.22;5022823;28;20477;-77
2022/09/23 06:42:41;;;;;;;28.02;26.20;;;;;;;13.84;54.89;101518.88;5060894;28;20030;-81
2022/09/23 06:45:10;;;;;;;28.25;25.98;;;;;;;13.85;55.10;101525.09;5034787;28;20032;-78
2022/09/23 06:47:36;;;;;;;27.20;25.10;;;;;;;13.84;54.89;101529.72;5030368;28;20041;-77
2022/09/23 06:50:02;;;;;;;28.20;26.13;;;;;;;13.84;54.88;101528.91;5014802;28;20060;-77
2022/09/23 06:52:27;;;;;;;27.83;25.90;;;;;;;13.84;55.00;101526.19;5036066;28;20094;-78
2022/09/23 06:54:53;;;;;;;30.05;27.67;;;;;;;13.83;55.03;101522.66;5031648;28;20120;-76
2022/09/23 06:57:19;;;;;;;27.60;25.77;;;;;;;13.83;55.01;101521.81;5013963;28;20045;-78
2022/09/23 06:59:46;;;;;;;27.70;25.88;;;;;;;13.83;55.15;101521.81;5024269;28;20477;-78
2022/09/23 07:02:11;;;;;;;27.17;25.27;;;;;;;13.82;55.16;101520.19;5048645;28;20083;-78
2022/09/23 07:04:37;;;;;;;28.50;26.48;;;;;;;13.82;54.86;101517.47;5033555;28;20079;-78
2022/09/23 07:07:03;;;;;;;28.88;26.98;;;;;;;13.82;55.18;101520.19;5051435;28;20034;-78
2022/09/23 07:09:28;;;;;;;28.75;26.85;;;;;;;13.81;54.92;101511.22;5041222;28;20044;-76
2022/09/23 07:11:54;;;;;;;30.08;27.67;;;;;;;13.81;54.94;101518.53;5064564;28;20034;-78
2022/09/23 07:14:19;;;;;;;29.13;27.02;;;;;;;13.80;54.82;101514.97;5031809;28;20041;-76
2022/09/23 07:16:47;;;;;;;28.80;26.98;;;;;;;13.80;54.92;101512.25;5030038;28;20033;-77
2022/09/23 07:19:14;;;;;;;26.08;24.40;;;;;;;13.80;55.31;101517.69;5047666;28;20070;-76
2022/09/23 07:21:40;;;;;;;28.70;26.63;;;;;;;13.80;54.99;101512.25;5031629;28;20038;-77
2022/09/23 07:24:06;;;;;;;27.95;25.95;;;;;;;13.80;54.93;101516.88;5034943;28;20115;-77
2022/09/23 07:26:32;;;;;;;28.73;26.65;;;;;;;13.80;55.29;101511.44;5050286;28;20476;-76
2022/09/23 07:29:03;;;;;;;26.80;25.00;;;;;;;13.80;55.24;101500.59;5057074;28;20066;-76
2022/09/23 07:31:32;;;;;;;27.55;25.25;;;;;;;13.80;55.37;101509.53;5018138;28;20033;-76
2022/09/23 07:34:00;;;;;;;27.83;26.00;;;;;;;13.80;55.40;101511.44;5030687;28;20053;-77
2022/09/23 07:36:27;;;;;;;30.27;27.33;;;;;;;13.79;55.38;101507.09;5030642;28;20033;-76
2022/09/23 07:38:59;;;;;;;28.75;26.85;;;;;;;13.79;55.17;101510.63;5030700;28;20074;-75
2022/09/23 07:41:27;;;;;;;28.65;26.33;;;;;;;13.79;55.59;101512.53;5033174;28;20110;-77
2022/09/23 07:43:57;;;;;;;30.10;27.90;;;;;;;13.80;55.44;101522.31;5027220;28;20049;-81
2022/09/23 07:46:27;;;;;;;27.10;25.25;;;;;;;13.79;55.66;101524.19;5065695;28;20037;-81
2022/09/23 07:48:53;;;;;;;31.25;28.17;;;;;;;13.80;55.44;101525.03;5034278;28;20033;-78
2022/09/23 07:51:22;;;;;;;27.55;25.55;;;;;;;13.81;55.52;101521.25;5045843;28;20047;-78
2022/09/23 07:53:50;;;;;;;28.08;26.10;;;;;;;13.81;55.70;101527.50;5034454;28;20030;-81
2022/09/23 07:56:18;;;;;;;30.05;27.52;;;;;;;13.81;55.70;101527.50;5027855;28;20389;-86
2022/09/23 07:58:44;;;;;;;28.42;25.67;;;;;;;13.82;55.59;101537.28;5030616;28;20029;-77
2022/09/23 08:01:10;;;;;;;28.92;27.02;;;;;;;13.81;55.71;101527.50;5039894;28;20025;-77
2022/09/23 08:03:37;;;;;;;27.23;24.92;;;;;;;13.82;55.77;101531.84;5041568;28;20436;-78
2022/09/23 08:06:11;;;;;;;27.95;26.13;;;;;;;13.83;55.91;101529.97;5037344;28;20123;-75
2022/09/23 08:08:39;;;;;;;27.13;25.10;;;;;;;13.83;55.77;101528.09;4995067;28;20282;-79
2022/09/23 08:11:09;;;;;;;29.30;27.25;;;;;;;13.83;55.88;101528.09;5018853;28;20056;-77
2022/09/23 08:13:35;;;;;;;31.20;28.77;;;;;;;13.84;55.91;101521.56;5061132;28;20069;-77
2022/09/23 08:16:00;;;;;;;30.48;28.08;;;;;;;13.85;56.08;101531.34;5028711;28;20515;-78
2022/09/23 08:18:26;;;;;;;28.75;26.67;;;;;;;13.87;56.11;101522.16;5029073;28;20034;-77
2022/09/23 08:20:52;;;;;;;28.27;25.90;;;;;;;13.86;56.21;101518.63;5001987;28;20033;-78
2022/09/23 08:23:18;;;;;;;28.45;26.52;;;;;;;13.87;56.05;101522.16;5028994;28;20033;-77
2022/09/23 08:25:46;;;;;;;27.88;25.73;;;;;;;13.87;56.15;101522.16;5013990;28;20046;-76
2022/09/23 08:28:15;;;;;;;29.13;26.95;;;;;;;13.90;56.37;101521.66;5019199;28;20044;-76
2022/09/23 08:30:44;;;;;;;29.60;27.40;;;;;;;13.90;56.22;101518.94;5022990;28;20824;-77
2022/09/23 08:33:11;;;;;;;30.15;27.83;;;;;;;13.90;56.63;101513.50;5029470;28;20126;-78
2022/09/23 08:35:36;;;;;;;28.83;26.40;;;;;;;13.91;56.66;101513.28;5013450;28;20573;-82
2022/09/23 08:38:02;;;;;;;30.30;27.67;;;;;;;13.91;56.46;101524.16;5030971;28;20121;-77
2022/09/23 08:40:28;;;;;;;31.48;28.75;;;;;;;13.93;56.76;101510.31;5020524;28;20544;-77
2022/09/23 08:42:53;;;;;;;28.88;26.63;;;;;;;13.94;56.44;101514.69;5028376;28;20121;-77
2022/09/23 08:45:26;;;;;;;28.90;26.63;;;;;;;13.95;56.40;101513.59;5013925;28;20035;-76
2022/09/23 08:47:59;;;;;;;30.75;28.35;;;;;;;13.95;56.79;101511.69;5018782;28;20053;-85
2022/09/23 08:50:37;;;;;;;27.67;25.65;;;;;;;13.96;56.72;101513.38;5026451;28;20472;-77
2022/09/23 08:53:06;;;;;;;;;;;;;;;13.98;56.59;101511.19;5022551;28;20067;-78
2022/09/23 08:55:40;;;;;;;28.08;26.08;;;;;;;14.02;56.79;101516.97;5030750;28;19916;-76
2022/09/23 08:58:20;;;;;;;33.28;30.45;;;;;;;14.05;56.14;101509.16;5030043;28;20427;-80
2022/09/23 09:01:05;;;;;;;28.08;25.88;;;;;;;14.10;56.89;101507.59;5023725;28;20044;-78
2022/09/23 09:03:40;;;;;;;27.60;25.40;;;;;;;14.14;56.71;101514.19;5062474;28;20428;-78
2022/09/23 09:06:07;;;;;;;30.55;28.17;;;;;;;14.14;56.71;101517.72;5029088;28;20029;-81
2022/09/23 09:08:36;;;;;;;29.10;26.17;;;;;;;14.15;56.69;101511.22;5043380;28;20085;-79
2022/09/23 09:11:02;;;;;;;29.23;27.15;;;;;;;14.17;56.44;101503.63;5038300;28;20116;-80
2022/09/23 09:13:33;;;;;;;31.27;28.45;;;;;;;14.19;56.65;101506.13;5028173;28;20041;-80
2022/09/23 09:16:26;;;;;;;27.75;25.65;;;;;;;14.20;56.66;101503.13;5010726;28;20417;-79
2022/09/23 09:18:54;;;;;;;28.48;26.35;;;;;;;14.21;56.79;101503.94;5011353;28;20484;-79
2022/09/23 09:21:36;;;;;;;29.70;27.33;;;;;;;14.21;56.80;101504.81;5029865;28;20109;-79
2022/09/23 09:24:07;;;;;;;27.65;25.55;;;;;;;14.23;56.69;101494.47;5030928;28;20042;-79
2022/09/23 09:26:33;;;;;;;27.92;25.80;;;;;;;14.25;56.54;101502.41;5026067;28;20051;-78
2022/09/23 09:29:15;;;;;;;27.65;25.92;;;;;;;14.28;56.66;101507.31;5009716;28;20042;-78
2022/09/23 09:31:46;;;;;;;27.70;25.60;;;;;;;14.29;56.56;101507.09;5011183;28;20033;-78
2022/09/23 09:34:24;;;;;;;27.65;25.70;;;;;;;14.32;56.52;101507.66;5025396;28;20137;-78
2022/09/23 09:37:07;;;;;;;27.55;25.63;;;;;;;14.34;56.47;101508.22;5012277;28;20065;-78
2022/09/23 09:39:33;;;;;;;28.23;25.92;;;;;;;14.36;56.46;101500.66;5029009;28;20025;-77
2022/09/23 09:41:59;;;;;;;28.63;26.25;;;;;;;14.38;56.52;101509.38;5029716;28;20034;-78
2022/09/23 09:44:43;;;;;;;31.10;28.33;;;;;;;14.39;56.54;101503.72;5040408;28;20041;-77
2022/09/23 09:47:39;;;;;;;29.92;27.73;;;;;;;14.43;56.79;101502.13;5044178;28;20137;-78
2022/09/23 09:50:42;;;;;;;30.52;27.77;;;;;;;14.45;56.66;101497.25;5022643;28;20094;-78
2022/09/23 09:53:29;;;;;;;32.97;30.35;;;;;;;14.48;56.80;101501.38;5035295;28;20026;-77
2022/09/23 09:56:00;;;;;;;28.42;26.50;;;;;;;14.50;56.70;101497.31;5052872;28;20035;-78
2022/09/23 09:58:44;;;;;;;29.23;26.98;;;;;;;14.53;56.76;101487.88;5019177;28;20092;-77
2022/09/23 10:01:29;;;;;;;32.15;29.83;;;;;;;14.56;57.08;101492.00;5029883;28;20025;-77
2022/09/23 10:03:57;;;;;;;30.88;28.38;;;;;;;14.58;56.96;101485.22;5023414;28;20116;-78
2022/09/23 10:06:34;;;;;;;31.33;29.23;;;;;;;14.63;57.08;101482.56;5021922;28;20037;-80
2022/09/23 10:09:00;;;;;;;29.52;27.42;;;;;;;14.64;56.90;101478.81;5023653;28;20037;-80
2022/09/23 10:11:27;;;;;;;29.63;27.73;;;;;;;14.68;56.93;101481.81;5019538;28;20109;-78
2022/09/23 10:14:01;;;;;;;30.70;28.52;;;;;;;14.71;57.03;101481.31;5034539;28;20036;-79
2022/09/23 10:16:32;;;;;;;31.27;28.98;;;;;;;14.75;57.14;101478.94;5028677;28;20125;-79
2022/09/23 10:19:03;;;;;;;31.00;28.55;;;;;;;14.78;57.27;101472.97;5017528;28;20045;-77
2022/09/23 10:21:35;;;;;;;31.50;29.05;;;;;;;14.80;57.18;101479.81;5058665;28;20075;-78
2022/09/23 10:24:04;;;;;;;31.45;28.67;;;;;;;14.83;57.41;101473.88;5032261;28;20025;-79
2022/09/23 10:26:42;;;;;;;30.05;27.60;;;;;;;14.86;57.36;101476.06;5036291;28;20060;-78
2022/09/23 10:29:49;;;;;;;29.40;27.30;;;;;;;14.90;57.09;101470.97;5035946;28;20424;-78
2022/09/23 10:32:24;;;;;;;32.25;29.85;;;;;;;14.95;56.64;101472.94;5011814;28;20035;-79
2022/09/23 10:35:08;;;;;;;32.30;30.05;;;;;;;14.99;56.81;101471.31;5039709;28;20077;-78
2022/09/23 10:37:47;;;;;;;31.77;29.52;;;;;;;15.00;56.50;101465.63;5035595;28;20026;-79
2022/09/23 10:46:59;;;;;;;33.97;31.50;;;;;;;15.11;56.82;101463.84;5026354;28;20451;-77
2022/09/23 10:49:40;;;;;;;31.90;28.73;;;;;;;15.15;56.81;101467.72;4997636;28;20124;-75
2022/09/23 10:52:21;;;;;;;30.08;28.20;;;;;;;15.19;56.79;101468.00;5019940;28;20032;-81
2022/09/23 10:55:08;;;;;;;31.55;29.42;;;;;;;15.23;56.89;101469.97;5037005;28;20079;-81
2022/09/23 10:58:10;;;;;;;31.17;28.73;;;;;;;15.27;56.77;101473.84;5035778;28;20025;-78
2022/09/23 11:00:39;;;;;;;30.33;28.33;;;;;;;15.30;56.56;101467.88;5019187;28;20037;-79
2022/09/23 11:03:26;;;;;;;29.55;27.00;;;;;;;15.34;56.74;101468.16;5038083;28;20040;-82
2022/09/23 11:06:21;;;;;;;31.15;28.63;;;;;;;15.39;56.65;101467.41;5021203;28;20041;-77
2022/09/23 11:09:04;;;;;;;28.73;26.88;;;;;;;15.43;56.23;101468.53;5029282;28;20394;-78
2022/09/23 11:11:44;;;;;;;30.38;28.25;;;;;;;15.45;56.38;101467.22;5025831;28;20095;-79
2022/09/23 11:14:19;;;;;;;30.42;28.50;;;;;;;15.50;56.36;101469.97;5044864;28;20460;-79
2022/09/23 11:17:13;;;;;;;30.15;28.23;;;;;;;15.54;56.54;101473.00;5032482;28;20037;-77
2022/09/23 11:20:00;;;;;;;28.50;26.40;;;;;;;15.58;56.30;101465.97;5033130;28;20409;-78
2022/09/23 11:22:52;;;;;;;29.52;27.58;;;;;;;15.62;56.13;101467.06;5016093;28;20061;-78
2022/09/23 11:25:46;;;;;;;30.70;28.45;;;;;;;15.65;56.16;101460.28;5063663;28;20037;-78
2022/09/23 11:28:40;;;;;;;30.90;28.75;;;;;;;15.70;56.00;101461.19;5031187;28;20063;-77
2022/09/23 11:31:23;;;;;;;28.92;27.23;;;;;;;15.74;56.00;101461.50;5032836;28;20060;-77
2022/09/23 11:34:10;;;;;;;31.05;28.90;;;;;;;15.76;56.14;101457.44;5021276;28;20494;-78
2022/09/23 11:36:49;;;;;;;32.83;30.50;;;;;;;15.81;55.84;101455.84;5019192;28;20038;-78
2022/09/23 11:39:27;;;;;;;29.75;27.92;;;;;;;15.84;55.61;101456.13;5057241;28;20084;-79
2022/09/23 11:41:55;;;;;;;30.75;28.75;;;;;;;15.88;55.69;101448.28;5014000;28;20081;-77